sensor_id;sensor_type;location;lat;lon;timestamp;pressure;altitude;pressure_sealevel;temperature
73673;BMP280;61972;19.480;-99.240;2023-11-19T00:00:57;77672.53;;;27.14
73673;BMP280;61972;19.480;-99.240;2023-11-19T00:03:23;77675.31;;;27.17
73673;BMP280;61972;19.480;-99.240;2023-11-19T00:05:50;77675.84;;;27.18
73673;BMP280;61972;19.480;-99.240;2023-11-19T00:08:16;77683.72;;;27.18
73673;BMP280;61972;19.480;-99.240;2023-11-19T00:10:42;77682.47;;;27.14
73673;BMP280;61972;19.480;-99.240;2023-11-19T00:13:08;77684.81;;;27.09
73673;BMP280;61972;19.480;-99.240;2023-11-19T00:15:35;77691.25;;;27.03
73673;BMP280;61972;19.480;-99.240;2023-11-19T00:18:02;77684.56;;;26.97
73673;BMP280;61972;19.480;-99.240;2023-11-19T00:20:30;77683.72;;;26.91
73673;BMP280;61972;19.480;-99.240;2023-11-19T00:22:56;77692.22;;;26.84
73673;BMP280;61972;19.480;-99.240;2023-11-19T00:25:23;77699.63;;;26.76
73673;BMP280;61972;19.480;-99.240;2023-11-19T00:27:50;77704.00;;;26.71
73673;BMP280;61972;19.480;-99.240;2023-11-19T00:30:17;77698.84;;;26.64
73673;BMP280;61972;19.480;-99.240;2023-11-19T00:32:43;77700.03;;;26.57
73673;BMP280;61972;19.480;-99.240;2023-11-19T00:35:09;77700.09;;;26.50
73673;BMP280;61972;19.480;-99.240;2023-11-19T00:37:41;77701.31;;;26.44
73673;BMP280;61972;19.480;-99.240;2023-11-19T00:40:14;77699.88;;;26.38
73673;BMP280;61972;19.480;-99.240;2023-11-19T00:42:41;77703.69;;;26.32
73673;BMP280;61972;19.480;-99.240;2023-11-19T00:45:09;77715.91;;;26.26
73673;BMP280;61972;19.480;-99.240;2023-11-19T00:47:36;77716.72;;;26.22
73673;BMP280;61972;19.480;-99.240;2023-11-19T00:50:03;77724.22;;;26.17
73673;BMP280;61972;19.480;-99.240;2023-11-19T00:52:29;77722.94;;;26.13
73673;BMP280;61972;19.480;-99.240;2023-11-19T00:54:55;77733.28;;;26.11
73673;BMP280;61972;19.480;-99.240;2023-11-19T00:57:22;77742.06;;;26.09
73673;BMP280;61972;19.480;-99.240;2023-11-19T00:59:49;77746.19;;;26.08
73673;BMP280;61972;19.480;-99.240;2023-11-19T01:02:15;77748.66;;;26.06
73673;BMP280;61972;19.480;-99.240;2023-11-19T01:04:42;77748.09;;;26.05
73673;BMP280;61972;19.480;-99.240;2023-11-19T01:07:08;77752.78;;;26.05
73673;BMP280;61972;19.480;-99.240;2023-11-19T01:09:38;77757.03;;;26.06
73673;BMP280;61972;19.480;-99.240;2023-11-19T01:12:04;77768.25;;;26.09
73673;BMP280;61972;19.480;-99.240;2023-11-19T01:14:30;77769.38;;;26.10
73673;BMP280;61972;19.480;-99.240;2023-11-19T01:16:57;77766.38;;;26.12
73673;BMP280;61972;19.480;-99.240;2023-11-19T01:19:23;77773.81;;;26.14
73673;BMP280;61972;19.480;-99.240;2023-11-19T01:24:19;77778.28;;;26.18
73673;BMP280;61972;19.480;-99.240;2023-11-19T01:26:46;77776.38;;;26.21
73673;BMP280;61972;19.480;-99.240;2023-11-19T01:29:15;77779.72;;;26.25
73673;BMP280;61972;19.480;-99.240;2023-11-19T01:34:08;77788.31;;;26.28
73673;BMP280;61972;19.480;-99.240;2023-11-19T01:36:34;77788.84;;;26.28
73673;BMP280;61972;19.480;-99.240;2023-11-19T01:39:01;77789.97;;;26.29
73673;BMP280;61972;19.480;-99.240;2023-11-19T01:43:53;77798.00;;;26.32
73673;BMP280;61972;19.480;-99.240;2023-11-19T01:46:20;77803.25;;;26.32
73673;BMP280;61972;19.480;-99.240;2023-11-19T01:48:46;77800.19;;;26.34
73673;BMP280;61972;19.480;-99.240;2023-11-19T01:51:13;77806.56;;;26.35
73673;BMP280;61972;19.480;-99.240;2023-11-19T01:53:43;77808.78;;;26.37
73673;BMP280;61972;19.480;-99.240;2023-11-19T01:56:11;77813.09;;;26.38
73673;BMP280;61972;19.480;-99.240;2023-11-19T01:58:39;77812.69;;;26.40
73673;BMP280;61972;19.480;-99.240;2023-11-19T02:01:06;77813.81;;;26.42
73673;BMP280;61972;19.480;-99.240;2023-11-19T02:03:33;77818.13;;;26.43
73673;BMP280;61972;19.480;-99.240;2023-11-19T02:06:00;77818.25;;;26.46
73673;BMP280;61972;19.480;-99.240;2023-11-19T02:08:26;77810.00;;;26.48
73673;BMP280;61972;19.480;-99.240;2023-11-19T02:10:52;77814.31;;;26.49
73673;BMP280;61972;19.480;-99.240;2023-11-19T02:13:23;77827.00;;;26.51
73673;BMP280;61972;19.480;-99.240;2023-11-19T02:15:49;77826.59;;;26.53
73673;BMP280;61972;19.480;-99.240;2023-11-19T02:18:19;77827.72;;;26.54
73673;BMP280;61972;19.480;-99.240;2023-11-19T02:20:48;77834.63;;;26.56
73673;BMP280;61972;19.480;-99.240;2023-11-19T02:23:15;77831.63;;;26.58
73673;BMP280;61972;19.480;-99.240;2023-11-19T02:25:43;77833.28;;;26.60
73673;BMP280;61972;19.480;-99.240;2023-11-19T02:28:15;77840.75;;;26.62
73673;BMP280;61972;19.480;-99.240;2023-11-19T02:30:42;77841.88;;;26.63
73673;BMP280;61972;19.480;-99.240;2023-11-19T02:33:08;77838.84;;;26.65
73673;BMP280;61972;19.480;-99.240;2023-11-19T02:35:34;77844.25;;;26.67
73673;BMP280;61972;19.480;-99.240;2023-11-19T02:38:00;77852.69;;;26.68
73673;BMP280;61972;19.480;-99.240;2023-11-19T02:40:26;77858.47;;;26.68
73673;BMP280;61972;19.480;-99.240;2023-11-19T02:42:53;77864.28;;;26.69
73673;BMP280;61972;19.480;-99.240;2023-11-19T02:45:25;77860.56;;;26.68
73673;BMP280;61972;19.480;-99.240;2023-11-19T02:47:52;77870.66;;;26.70
73673;BMP280;61972;19.480;-99.240;2023-11-19T02:50:20;77875.91;;;26.70
73673;BMP280;61972;19.480;-99.240;2023-11-19T02:52:54;77875.91;;;26.70
73673;BMP280;61972;19.480;-99.240;2023-11-19T02:55:24;77881.69;;;26.70
73673;BMP280;61972;19.480;-99.240;2023-11-19T02:57:51;77880.03;;;26.69
73673;BMP280;61972;19.480;-99.240;2023-11-19T03:00:22;77878.91;;;26.68
73673;BMP280;61972;19.480;-99.240;2023-11-19T03:03:09;77882.06;;;26.68
73673;BMP280;61972;19.480;-99.240;2023-11-19T03:05:58;77882.63;;;26.69
73673;BMP280;61972;19.480;-99.240;2023-11-19T03:08:24;77885.63;;;26.67
73673;BMP280;61972;19.480;-99.240;2023-11-19T03:10:50;77881.91;;;26.66
73673;BMP280;61972;19.480;-99.240;2023-11-19T03:13:16;77884.38;;;26.63
73673;BMP280;61972;19.480;-99.240;2023-11-19T03:15:43;77899.91;;;26.61
73673;BMP280;61972;19.480;-99.240;2023-11-19T03:18:09;77889.28;;;26.58
73673;BMP280;61972;19.480;-99.240;2023-11-19T03:20:35;77890.25;;;26.56
73673;BMP280;61972;19.480;-99.240;2023-11-19T03:23:02;77895.88;;;26.54
73673;BMP280;61972;19.480;-99.240;2023-11-19T03:25:28;77901.50;;;26.52
73673;BMP280;61972;19.480;-99.240;2023-11-19T03:28:03;77896.63;;;26.50
73673;BMP280;61972;19.480;-99.240;2023-11-19T03:30:30;77903.38;;;26.49
73673;BMP280;61972;19.480;-99.240;2023-11-19T03:32:58;77899.66;;;26.48
73673;BMP280;61972;19.480;-99.240;2023-11-19T03:35:28;77896.88;;;26.46
73673;BMP280;61972;19.480;-99.240;2023-11-19T03:37:54;77892.97;;;26.42
73673;BMP280;61972;19.480;-99.240;2023-11-19T03:40:21;77897.09;;;26.41
73673;BMP280;61972;19.480;-99.240;2023-11-19T03:42:48;77891.28;;;26.40
73673;BMP280;61972;19.480;-99.240;2023-11-19T03:45:14;77887.38;;;26.37
73673;BMP280;61972;19.480;-99.240;2023-11-19T03:47:41;77895.63;;;26.35
73673;BMP280;61972;19.480;-99.240;2023-11-19T03:50:08;77891.34;;;26.33
73673;BMP280;61972;19.480;-99.240;2023-11-19T03:52:35;77891.72;;;26.31
73673;BMP280;61972;19.480;-99.240;2023-11-19T03:55:01;77889.50;;;26.29
73673;BMP280;61972;19.480;-99.240;2023-11-19T03:57:30;77891.41;;;26.26
73673;BMP280;61972;19.480;-99.240;2023-11-19T03:59:56;77885.63;;;26.26
73673;BMP280;61972;19.480;-99.240;2023-11-19T04:02:24;77893.84;;;26.24
73673;BMP280;61972;19.480;-99.240;2023-11-19T04:04:54;77892.75;;;26.23
73673;BMP280;61972;19.480;-99.240;2023-11-19T04:07:20;77893.13;;;26.20
73673;BMP280;61972;19.480;-99.240;2023-11-19T04:09:47;77888.28;;;26.18
73673;BMP280;61972;19.480;-99.240;2023-11-19T04:12:13;77889.78;;;26.17
73673;BMP280;61972;19.480;-99.240;2023-11-19T04:14:39;77891.84;;;26.17
73673;BMP280;61972;19.480;-99.240;2023-11-19T04:17:06;77889.06;;;26.14
73673;BMP280;61972;19.480;-99.240;2023-11-19T04:19:32;77889.06;;;26.14
73673;BMP280;61972;19.480;-99.240;2023-11-19T04:21:58;77898.41;;;26.13
73673;BMP280;61972;19.480;-99.240;2023-11-19T04:24:24;77898.41;;;26.13
73673;BMP280;61972;19.480;-99.240;2023-11-19T04:26:50;77887.78;;;26.11
73673;BMP280;61972;19.480;-99.240;2023-11-19T04:29:18;77882.94;;;26.09
73673;BMP280;61972;19.480;-99.240;2023-11-19T04:31:45;77884.97;;;26.08
73673;BMP280;61972;19.480;-99.240;2023-11-19T04:34:11;77885.91;;;26.07
73673;BMP280;61972;19.480;-99.240;2023-11-19T04:36:38;77891.56;;;26.05
73673;BMP280;61972;19.480;-99.240;2023-11-19T04:39:04;77896.25;;;26.04
73673;BMP280;61972;19.480;-99.240;2023-11-19T04:41:46;77893.03;;;26.03
73673;BMP280;61972;19.480;-99.240;2023-11-19T04:44:13;77894.16;;;26.05
73673;BMP280;61972;19.480;-99.240;2023-11-19T04:46:39;77888.94;;;26.05
73673;BMP280;61972;19.480;-99.240;2023-11-19T04:49:05;77897.34;;;26.05
73673;BMP280;61972;19.480;-99.240;2023-11-19T04:51:32;77895.81;;;26.06
73673;BMP280;61972;19.480;-99.240;2023-11-19T04:54:03;77887.03;;;26.08
73673;BMP280;61972;19.480;-99.240;2023-11-19T04:56:30;77887.19;;;26.10
73673;BMP280;61972;19.480;-99.240;2023-11-19T04:58:56;77889.44;;;26.12
73673;BMP280;61972;19.480;-99.240;2023-11-19T05:01:22;77893.56;;;26.11
73673;BMP280;61972;19.480;-99.240;2023-11-19T05:03:48;77893.16;;;26.13
73673;BMP280;61972;19.480;-99.240;2023-11-19T05:06:14;77890.56;;;26.13
73673;BMP280;61972;19.480;-99.240;2023-11-19T05:08:41;77893.72;;;26.14
73673;BMP280;61972;19.480;-99.240;2023-11-19T05:11:07;77887.56;;;26.15
73673;BMP280;61972;19.480;-99.240;2023-11-19T05:13:33;77883.25;;;26.14
73673;BMP280;61972;19.480;-99.240;2023-11-19T05:15:59;77890.56;;;26.13
73673;BMP280;61972;19.480;-99.240;2023-11-19T05:18:25;77892.06;;;26.12
73673;BMP280;61972;19.480;-99.240;2023-11-19T05:20:51;77884.59;;;26.10
73673;BMP280;61972;19.480;-99.240;2023-11-19T05:23:17;77889.28;;;26.10
73673;BMP280;61972;19.480;-99.240;2023-11-19T05:25:43;77882.94;;;26.09
73673;BMP280;61972;19.480;-99.240;2023-11-19T05:28:11;77874.88;;;26.06
73673;BMP280;61972;19.480;-99.240;2023-11-19T05:30:40;77874.88;;;26.06
73673;BMP280;61972;19.480;-99.240;2023-11-19T05:33:06;77875.28;;;26.04
73673;BMP280;61972;19.480;-99.240;2023-11-19T05:35:34;77882.03;;;26.03
73673;BMP280;61972;19.480;-99.240;2023-11-19T05:38:01;77872.09;;;26.03
73673;BMP280;61972;19.480;-99.240;2023-11-19T05:40:28;77875.69;;;26.02
73673;BMP280;61972;19.480;-99.240;2023-11-19T05:42:54;77880.91;;;26.02
73673;BMP280;61972;19.480;-99.240;2023-11-19T05:45:20;77874.56;;;26.01
73673;BMP280;61972;19.480;-99.240;2023-11-19T05:47:46;77884.47;;;26.00
73673;BMP280;61972;19.480;-99.240;2023-11-19T05:50:12;77870.81;;;26.00
73673;BMP280;61972;19.480;-99.240;2023-11-19T05:52:38;77873.44;;;26.00
73673;BMP280;61972;19.480;-99.240;2023-11-19T05:55:05;77874.56;;;26.01
73673;BMP280;61972;19.480;-99.240;2023-11-19T05:57:38;77876.78;;;26.03
73673;BMP280;61972;19.480;-99.240;2023-11-19T06:00:04;77873.78;;;26.05
73673;BMP280;61972;19.480;-99.240;2023-11-19T06:02:36;77878.25;;;26.09
73673;BMP280;61972;19.480;-99.240;2023-11-19T06:05:04;77877.31;;;26.11
73673;BMP280;61972;19.480;-99.240;2023-11-19T06:07:32;77871.66;;;26.13
73673;BMP280;61972;19.480;-99.240;2023-11-19T06:09:58;77869.59;;;26.13
73673;BMP280;61972;19.480;-99.240;2023-11-19T06:12:24;77872.22;;;26.13
73673;BMP280;61972;19.480;-99.240;2023-11-19T06:14:53;77867.53;;;26.14
73673;BMP280;61972;19.480;-99.240;2023-11-19T06:17:19;77862.88;;;26.14
73673;BMP280;61972;19.480;-99.240;2023-11-19T06:19:45;77868.09;;;26.14
73673;BMP280;61972;19.480;-99.240;2023-11-19T06:22:11;77872.78;;;26.14
73673;BMP280;61972;19.480;-99.240;2023-11-19T06:24:37;77870.72;;;26.14
73673;BMP280;61972;19.480;-99.240;2023-11-19T06:27:03;77870.16;;;26.14
73673;BMP280;61972;19.480;-99.240;2023-11-19T06:29:30;77872.78;;;26.14
73673;BMP280;61972;19.480;-99.240;2023-11-19T06:31:56;77868.66;;;26.15
73673;BMP280;61972;19.480;-99.240;2023-11-19T06:34:22;77859.84;;;26.16
73673;BMP280;61972;19.480;-99.240;2023-11-19T06:36:49;77858.19;;;26.15
73673;BMP280;61972;19.480;-99.240;2023-11-19T06:39:15;77850.91;;;26.15
73673;BMP280;61972;19.480;-99.240;2023-11-19T06:41:47;77852.38;;;26.14
73673;BMP280;61972;19.480;-99.240;2023-11-19T06:44:13;77850.72;;;26.13
73673;BMP280;61972;19.480;-99.240;2023-11-19T06:46:40;77850.16;;;26.12
73673;BMP280;61972;19.480;-99.240;2023-11-19T06:49:06;77851.28;;;26.13
73673;BMP280;61972;19.480;-99.240;2023-11-19T06:51:35;77845.47;;;26.13
73673;BMP280;61972;19.480;-99.240;2023-11-19T06:54:01;77839.69;;;26.12
73673;BMP280;61972;19.480;-99.240;2023-11-19T06:56:27;77837.44;;;26.10
73673;BMP280;61972;19.480;-99.240;2023-11-19T06:58:53;77836.91;;;26.10
73673;BMP280;61972;19.480;-99.240;2023-11-19T07:01:20;77841.59;;;26.09
73673;BMP280;61972;19.480;-99.240;2023-11-19T07:03:46;77833.19;;;26.09
73673;BMP280;61972;19.480;-99.240;2023-11-19T07:06:12;77830.00;;;26.08
73673;BMP280;61972;19.480;-99.240;2023-11-19T07:08:41;77831.09;;;26.09
73673;BMP280;61972;19.480;-99.240;2023-11-19T07:11:10;77831.47;;;26.07
73673;BMP280;61972;19.480;-99.240;2023-11-19T07:13:37;77836.72;;;26.07
73673;BMP280;61972;19.480;-99.240;2023-11-19T07:16:04;77834.66;;;26.08
73673;BMP280;61972;19.480;-99.240;2023-11-19T07:18:30;77833.19;;;26.09
73673;BMP280;61972;19.480;-99.240;2023-11-19T07:20:57;77834.28;;;26.10
73673;BMP280;61972;19.480;-99.240;2023-11-19T07:23:25;77839.69;;;26.12
73673;BMP280;61972;19.480;-99.240;2023-11-19T07:25:51;77834.47;;;26.12
73673;BMP280;61972;19.480;-99.240;2023-11-19T07:28:19;77835.00;;;26.13
73673;BMP280;61972;19.480;-99.240;2023-11-19T07:30:45;77836.34;;;26.09
73673;BMP280;61972;19.480;-99.240;2023-11-19T07:33:11;77840.31;;;26.06
73673;BMP280;61972;19.480;-99.240;2023-11-19T07:35:39;77840.91;;;25.99
73673;BMP280;61972;19.480;-99.240;2023-11-19T07:38:08;77833.88;;;25.88
73673;BMP280;61972;19.480;-99.240;2023-11-19T07:40:34;77835.41;;;25.79
73673;BMP280;61972;19.480;-99.240;2023-11-19T07:43:00;77830.63;;;25.70
73673;BMP280;61972;19.480;-99.240;2023-11-19T07:45:26;77833.28;;;25.63
73673;BMP280;61972;19.480;-99.240;2023-11-19T07:47:53;77835.03;;;25.57
73673;BMP280;61972;19.480;-99.240;2023-11-19T07:50:20;77833.72;;;25.54
73673;BMP280;61972;19.480;-99.240;2023-11-19T07:52:46;77829.28;;;25.50
73673;BMP280;61972;19.480;-99.240;2023-11-19T07:55:12;77822.19;;;25.45
73673;BMP280;61972;19.480;-99.240;2023-11-19T07:57:38;77827.81;;;25.43
73673;BMP280;61972;19.480;-99.240;2023-11-19T08:00:05;77818.13;;;25.39
73673;BMP280;61972;19.480;-99.240;2023-11-19T08:02:32;77820.16;;;25.39
73673;BMP280;61972;19.480;-99.240;2023-11-19T08:04:58;77820.56;;;25.37
73673;BMP280;61972;19.480;-99.240;2023-11-19T08:07:24;77812.16;;;25.36
73673;BMP280;61972;19.480;-99.240;2023-11-19T08:09:50;77811.03;;;25.35
73673;BMP280;61972;19.480;-99.240;2023-11-19T08:12:17;77804.69;;;25.34
73673;BMP280;61972;19.480;-99.240;2023-11-19T08:14:43;77801.91;;;25.32
73673;BMP280;61972;19.480;-99.240;2023-11-19T08:17:34;77800.22;;;25.30
73673;BMP280;61972;19.480;-99.240;2023-11-19T08:20:00;77809.03;;;25.28
73673;BMP280;61972;19.480;-99.240;2023-11-19T08:22:26;77802.09;;;25.27
73673;BMP280;61972;19.480;-99.240;2023-11-19T08:24:52;77800.28;;;25.23
73673;BMP280;61972;19.480;-99.240;2023-11-19T08:27:18;77795.97;;;25.21
73673;BMP280;61972;19.480;-99.240;2023-11-19T08:29:54;77796.19;;;25.17
73673;BMP280;61972;19.480;-99.240;2023-11-19T08:32:25;77791.72;;;25.13
73673;BMP280;61972;19.480;-99.240;2023-11-19T08:34:52;77789.88;;;25.08
73673;BMP280;61972;19.480;-99.240;2023-11-19T08:37:18;77789.72;;;25.06
73673;BMP280;61972;19.480;-99.240;2023-11-19T08:39:50;77790.09;;;25.04
73673;BMP280;61972;19.480;-99.240;2023-11-19T08:42:16;77789.91;;;25.01
73673;BMP280;61972;19.480;-99.240;2023-11-19T08:44:43;77785.63;;;25.00
73673;BMP280;61972;19.480;-99.240;2023-11-19T08:47:11;77790.84;;;25.00
73673;BMP280;61972;19.480;-99.240;2023-11-19T08:49:37;77788.25;;;25.00
73673;BMP280;61972;19.480;-99.240;2023-11-19T08:52:05;77785.63;;;25.00
73673;BMP280;61972;19.480;-99.240;2023-11-19T08:54:33;77790.13;;;24.97
73673;BMP280;61972;19.480;-99.240;2023-11-19T08:56:59;77790.13;;;24.97
73673;BMP280;61972;19.480;-99.240;2023-11-19T08:59:26;77787.34;;;24.94
73673;BMP280;61972;19.480;-99.240;2023-11-19T09:01:52;77779.88;;;24.92
73673;BMP280;61972;19.480;-99.240;2023-11-19T09:04:18;77786.06;;;24.90
73673;BMP280;61972;19.480;-99.240;2023-11-19T09:06:48;77777.09;;;24.89
73673;BMP280;61972;19.480;-99.240;2023-11-19T09:09:14;77764.94;;;24.88
73673;BMP280;61972;19.480;-99.240;2023-11-19T09:11:40;77771.13;;;24.86
73673;BMP280;61972;19.480;-99.240;2023-11-19T09:14:06;77768.72;;;24.82
73673;BMP280;61972;19.480;-99.240;2023-11-19T09:16:33;77771.34;;;24.82
73673;BMP280;61972;19.480;-99.240;2023-11-19T09:19:00;77776.41;;;24.79
73673;BMP280;61972;19.480;-99.240;2023-11-19T09:21:27;77771.00;;;24.77
73673;BMP280;61972;19.480;-99.240;2023-11-19T09:23:57;77766.13;;;24.74
73673;BMP280;61972;19.480;-99.240;2023-11-19T09:26:23;77767.06;;;24.73
73673;BMP280;61972;19.480;-99.240;2023-11-19T09:28:49;77768.56;;;24.72
73673;BMP280;61972;19.480;-99.240;2023-11-19T09:31:17;77762.41;;;24.73
73673;BMP280;61972;19.480;-99.240;2023-11-19T09:33:44;77760.53;;;24.77
73673;BMP280;61972;19.480;-99.240;2023-11-19T09:36:12;77768.00;;;24.79
73673;BMP280;61972;19.480;-99.240;2023-11-19T09:38:45;77767.59;;;24.81
73673;BMP280;61972;19.480;-99.240;2023-11-19T09:41:11;77769.28;;;24.82
73673;BMP280;61972;19.480;-99.240;2023-11-19T09:43:39;77766.09;;;24.82
73673;BMP280;61972;19.480;-99.240;2023-11-19T09:46:09;77770.94;;;24.84
73673;BMP280;61972;19.480;-99.240;2023-11-19T09:48:38;77770.94;;;24.84
73673;BMP280;61972;19.480;-99.240;2023-11-19T09:51:07;77772.47;;;24.83
73673;BMP280;61972;19.480;-99.240;2023-11-19T09:53:34;77764.97;;;24.81
73673;BMP280;61972;19.480;-99.240;2023-11-19T09:56:03;77765.38;;;24.79
73673;BMP280;61972;19.480;-99.240;2023-11-19T09:58:30;77764.25;;;24.78
73673;BMP280;61972;19.480;-99.240;2023-11-19T10:00:59;77773.97;;;24.74
73673;BMP280;61972;19.480;-99.240;2023-11-19T10:03:32;77770.63;;;24.71
73673;BMP280;61972;19.480;-99.240;2023-11-19T10:06:01;77764.69;;;24.68
73673;BMP280;61972;19.480;-99.240;2023-11-19T10:08:28;77768.03;;;24.64
73673;BMP280;61972;19.480;-99.240;2023-11-19T10:10:54;77770.50;;;24.62
73673;BMP280;61972;19.480;-99.240;2023-11-19T10:13:26;77763.41;;;24.58
73673;BMP280;61972;19.480;-99.240;2023-11-19T10:15:53;77767.34;;;24.54
73673;BMP280;61972;19.480;-99.240;2023-11-19T10:18:24;77763.44;;;24.50
73673;BMP280;61972;19.480;-99.240;2023-11-19T10:20:51;77776.28;;;24.48
73673;BMP280;61972;19.480;-99.240;2023-11-19T10:23:20;77772.97;;;24.45
73673;BMP280;61972;19.480;-99.240;2023-11-19T10:25:47;77771.88;;;24.44
73673;BMP280;61972;19.480;-99.240;2023-11-19T10:28:15;77775.97;;;24.43
73673;BMP280;61972;19.480;-99.240;2023-11-19T10:30:44;77777.84;;;24.40
73673;BMP280;61972;19.480;-99.240;2023-11-19T10:33:12;77775.59;;;24.37
73673;BMP280;61972;19.480;-99.240;2023-11-19T10:35:57;77770.94;;;24.38
73673;BMP280;61972;19.480;-99.240;2023-11-19T10:38:25;77774.47;;;24.36
73673;BMP280;61972;19.480;-99.240;2023-11-19T10:40:52;77770.38;;;24.37
73673;BMP280;61972;19.480;-99.240;2023-11-19T10:43:19;77767.59;;;24.35
73673;BMP280;61972;19.480;-99.240;2023-11-19T10:45:45;77775.97;;;24.35
73673;BMP280;61972;19.480;-99.240;2023-11-19T10:48:11;77768.53;;;24.33
73673;BMP280;61972;19.480;-99.240;2023-11-19T10:50:39;77778.78;;;24.31
73673;BMP280;61972;19.480;-99.240;2023-11-19T10:53:08;77786.63;;;24.31
73673;BMP280;61972;19.480;-99.240;2023-11-19T10:55:37;77781.22;;;24.28
73673;BMP280;61972;19.480;-99.240;2023-11-19T10:58:10;77780.66;;;24.28
73673;BMP280;61972;19.480;-99.240;2023-11-19T11:00:50;77786.28;;;24.26
73673;BMP280;61972;19.480;-99.240;2023-11-19T11:03:18;77788.31;;;24.25
73673;BMP280;61972;19.480;-99.240;2023-11-19T11:05:50;77791.28;;;24.23
73673;BMP280;61972;19.480;-99.240;2023-11-19T11:08:17;77792.41;;;24.24
73673;BMP280;61972;19.480;-99.240;2023-11-19T11:10:54;77797.63;;;24.24
73673;BMP280;61972;19.480;-99.240;2023-11-19T11:13:23;77795.41;;;24.22
73673;BMP280;61972;19.480;-99.240;2023-11-19T11:15:55;77800.06;;;24.22
73673;BMP280;61972;19.480;-99.240;2023-11-19T11:18:23;77804.16;;;24.21
73673;BMP280;61972;19.480;-99.240;2023-11-19T11:21:05;77796.69;;;24.18
73673;BMP280;61972;19.480;-99.240;2023-11-19T11:29:20;77813.69;;;24.15
73673;BMP280;61972;19.480;-99.240;2023-11-19T11:32:34;77805.84;;;24.15
73673;BMP280;61972;19.480;-99.240;2023-11-19T11:35:08;77814.06;;;24.13
73673;BMP280;61972;19.480;-99.240;2023-11-19T11:37:46;77814.06;;;24.13
73673;BMP280;61972;19.480;-99.240;2023-11-19T11:40:17;77817.25;;;24.13
73673;BMP280;61972;19.480;-99.240;2023-11-19T11:42:49;77818.16;;;24.12
73673;BMP280;61972;19.480;-99.240;2023-11-19T11:45:18;77812.56;;;24.14
73673;BMP280;61972;19.480;-99.240;2023-11-19T11:50:20;77823.94;;;24.12
73673;BMP280;61972;19.480;-99.240;2023-11-19T11:57:58;77812.75;;;24.09
73673;BMP280;61972;19.480;-99.240;2023-11-19T12:00:29;77823.75;;;24.10
73673;BMP280;61972;19.480;-99.240;2023-11-19T12:02:59;77826.56;;;24.12
73673;BMP280;61972;19.480;-99.240;2023-11-19T12:05:29;77829.34;;;24.15
73673;BMP280;61972;19.480;-99.240;2023-11-19T12:08:04;77835.69;;;24.16
73673;BMP280;61972;19.480;-99.240;2023-11-19T12:10:49;77835.69;;;24.16
73673;BMP280;61972;19.480;-99.240;2023-11-19T12:13:17;77841.88;;;24.14
73673;BMP280;61972;19.480;-99.240;2023-11-19T12:18:31;77845.75;;;24.11
73673;BMP280;61972;19.480;-99.240;2023-11-19T12:20:59;77845.22;;;24.10
73673;BMP280;61972;19.480;-99.240;2023-11-19T12:23:32;77853.59;;;24.11
73673;BMP280;61972;19.480;-99.240;2023-11-19T12:26:02;77853.94;;;24.09
73673;BMP280;61972;19.480;-99.240;2023-11-19T12:28:30;77850.25;;;24.08
73673;BMP280;61972;19.480;-99.240;2023-11-19T12:31:08;77849.50;;;24.05
73673;BMP280;61972;19.480;-99.240;2023-11-19T12:33:37;77860.88;;;24.03
73673;BMP280;61972;19.480;-99.240;2023-11-19T12:36:05;77859.56;;;23.99
73673;BMP280;61972;19.480;-99.240;2023-11-19T12:38:31;77856.97;;;23.99
73673;BMP280;61972;19.480;-99.240;2023-11-19T12:41:08;77856.19;;;23.96
73673;BMP280;61972;19.480;-99.240;2023-11-19T12:43:37;77854.53;;;23.95
73673;BMP280;61972;19.480;-99.240;2023-11-19T12:46:23;77856.97;;;23.92
73673;BMP280;61972;19.480;-99.240;2023-11-19T12:48:51;77858.44;;;23.91
73673;BMP280;61972;19.480;-99.240;2023-11-19T12:51:18;77865.16;;;23.90
73673;BMP280;61972;19.480;-99.240;2023-11-19T12:53:52;77858.81;;;23.89
73673;BMP280;61972;19.480;-99.240;2023-11-19T12:56:24;77862.38;;;23.88
73673;BMP280;61972;19.480;-99.240;2023-11-19T12:58:53;77861.25;;;23.87
73673;BMP280;61972;19.480;-99.240;2023-11-19T13:01:20;77863.28;;;23.86
73673;BMP280;61972;19.480;-99.240;2023-11-19T13:03:47;77865.34;;;23.86
73673;BMP280;61972;19.480;-99.240;2023-11-19T13:06:17;77868.88;;;23.84
73673;BMP280;61972;19.480;-99.240;2023-11-19T13:09:04;77867.75;;;23.83
73673;BMP280;61972;19.480;-99.240;2023-11-19T13:11:32;77871.84;;;23.82
73673;BMP280;61972;19.480;-99.240;2023-11-19T13:14:06;77877.06;;;23.82
73673;BMP280;61972;19.480;-99.240;2023-11-19T13:16:37;77878.94;;;23.79
73673;BMP280;61972;19.480;-99.240;2023-11-19T13:19:04;77881.56;;;23.79
73673;BMP280;61972;19.480;-99.240;2023-11-19T13:21:31;77882.09;;;23.79
73673;BMP280;61972;19.480;-99.240;2023-11-19T13:23:58;77877.81;;;23.78
73673;BMP280;61972;19.480;-99.240;2023-11-19T13:26:24;77887.16;;;23.77
73673;BMP280;61972;19.480;-99.240;2023-11-19T13:28:50;77894.97;;;23.77
73673;BMP280;61972;19.480;-99.240;2023-11-19T13:31:17;77895.91;;;23.75
73673;BMP280;61972;19.480;-99.240;2023-11-19T13:33:43;77889.56;;;23.74
73673;BMP280;61972;19.480;-99.240;2023-11-19T13:36:18;77892.72;;;23.75
73673;BMP280;61972;19.480;-99.240;2023-11-19T13:39:11;77894.78;;;23.74
73673;BMP280;61972;19.480;-99.240;2023-11-19T13:41:37;77900.00;;;23.74
73673;BMP280;61972;19.480;-99.240;2023-11-19T13:44:04;77894.78;;;23.74
73673;BMP280;61972;19.480;-99.240;2023-11-19T13:49:47;77912.47;;;23.74
73673;BMP280;61972;19.480;-99.240;2023-11-19T13:52:13;77902.03;;;23.74
73673;BMP280;61972;19.480;-99.240;2023-11-19T13:54:39;77894.22;;;23.74
73673;BMP280;61972;19.480;-99.240;2023-11-19T13:57:06;77897.38;;;23.74
73673;BMP280;61972;19.480;-99.240;2023-11-19T13:59:32;77905.75;;;23.75
73673;BMP280;61972;19.480;-99.240;2023-11-19T14:02:00;77909.31;;;23.73
73673;BMP280;61972;19.480;-99.240;2023-11-19T14:04:27;77907.25;;;23.74
73673;BMP280;61972;19.480;-99.240;2023-11-19T14:06:54;77907.63;;;23.72
73673;BMP280;61972;19.480;-99.240;2023-11-19T14:09:24;77910.59;;;23.70
73673;BMP280;61972;19.480;-99.240;2023-11-19T14:12:17;77912.84;;;23.64
73673;BMP280;61972;19.480;-99.240;2023-11-19T14:14:49;77914.31;;;23.63
73673;BMP280;61972;19.480;-99.240;2023-11-19T14:17:40;77919.16;;;23.58